sensor_id;sensor_type;location;lat;lon;timestamp;P1;durP1;ratioP1;P2;durP2;ratioP2
33501;SDS011;22396;51.070;4.974;2023-07-16T00:00:08;7.68;;;1.52;;
33501;SDS011;22396;51.070;4.974;2023-07-16T00:02:34;4.50;;;2.35;;
33501;SDS011;22396;51.070;4.974;2023-07-16T00:05:00;4.35;;;1.63;;
33501;SDS011;22396;51.070;4.974;2023-07-16T00:07:25;8.93;;;1.80;;
33501;SDS011;22396;51.070;4.974;2023-07-16T00:09:51;5.00;;;1.60;;
33501;SDS011;22396;51.070;4.974;2023-07-16T00:12:16;9.05;;;1.55;;
33501;SDS011;22396;51.070;4.974;2023-07-16T00:14:42;4.05;;;1.48;;
33501;SDS011;22396;51.070;4.974;2023-07-16T00:17:07;5.72;;;1.60;;
33501;SDS011;22396;51.070;4.974;2023-07-16T00:19:32;6.22;;;1.58;;
33501;SDS011;22396;51.070;4.974;2023-07-16T00:21:57;5.13;;;1.80;;
33501;SDS011;22396;51.070;4.974;2023-07-16T00:24:23;8.75;;;1.60;;
33501;SDS011;22396;51.070;4.974;2023-07-16T00:26:48;7.00;;;1.50;;
33501;SDS011;22396;51.070;4.974;2023-07-16T00:29:13;7.50;;;1.70;;
33501;SDS011;22396;51.070;4.974;2023-07-16T00:31:38;17.13;;;1.60;;
33501;SDS011;22396;51.070;4.974;2023-07-16T00:34:03;4.57;;;2.00;;
33501;SDS011;22396;51.070;4.974;2023-07-16T00:36:29;15.18;;;1.52;;
33501;SDS011;22396;51.070;4.974;2023-07-16T00:38:54;4.32;;;1.75;;
33501;SDS011;22396;51.070;4.974;2023-07-16T00:41:19;5.22;;;1.70;;
33501;SDS011;22396;51.070;4.974;2023-07-16T00:43:45;12.85;;;1.65;;
33501;SDS011;22396;51.070;4.974;2023-07-16T00:46:10;5.68;;;2.08;;
33501;SDS011;22396;51.070;4.974;2023-07-16T00:48:36;4.25;;;1.80;;
33501;SDS011;22396;51.070;4.974;2023-07-16T00:51:02;10.18;;;2.00;;
33501;SDS011;22396;51.070;4.974;2023-07-16T00:53:27;3.05;;;1.27;;
33501;SDS011;22396;51.070;4.974;2023-07-16T00:55:53;4.40;;;1.88;;
33501;SDS011;22396;51.070;4.974;2023-07-16T00:58:18;4.78;;;1.70;;
33501;SDS011;22396;51.070;4.974;2023-07-16T01:00:43;5.38;;;1.80;;
33501;SDS011;22396;51.070;4.974;2023-07-16T01:03:09;6.80;;;1.55;;
33501;SDS011;22396;51.070;4.974;2023-07-16T01:05:41;7.85;;;1.50;;
33501;SDS011;22396;51.070;4.974;2023-07-16T01:08:10;7.53;;;1.60;;
33501;SDS011;22396;51.070;4.974;2023-07-16T01:10:38;7.35;;;2.65;;
33501;SDS011;22396;51.070;4.974;2023-07-16T01:13:04;4.93;;;1.38;;
33501;SDS011;22396;51.070;4.974;2023-07-16T01:15:30;5.93;;;1.67;;
33501;SDS011;22396;51.070;4.974;2023-07-16T01:17:55;7.72;;;1.67;;
33501;SDS011;22396;51.070;4.974;2023-07-16T01:20:20;5.53;;;1.80;;
33501;SDS011;22396;51.070;4.974;2023-07-16T01:23:00;10.50;;;1.73;;
33501;SDS011;22396;51.070;4.974;2023-07-16T01:26:12;4.88;;;1.33;;
33501;SDS011;22396;51.070;4.974;2023-07-16T01:30:51;4.60;;;1.30;;
33501;SDS011;22396;51.070;4.974;2023-07-16T01:33:17;8.57;;;1.75;;
33501;SDS011;22396;51.070;4.974;2023-07-16T01:35:43;7.57;;;1.73;;
33501;SDS011;22396;51.070;4.974;2023-07-16T01:38:10;6.20;;;1.50;;
33501;SDS011;22396;51.070;4.974;2023-07-16T01:40:36;4.50;;;1.30;;
33501;SDS011;22396;51.070;4.974;2023-07-16T01:43:01;7.10;;;1.50;;
33501;SDS011;22396;51.070;4.974;2023-07-16T01:45:26;5.60;;;1.40;;
33501;SDS011;22396;51.070;4.974;2023-07-16T01:47:59;10.20;;;2.45;;
33501;SDS011;22396;51.070;4.974;2023-07-16T01:50:25;10.55;;;1.75;;
33501;SDS011;22396;51.070;4.974;2023-07-16T01:52:51;7.05;;;1.23;;
33501;SDS011;22396;51.070;4.974;2023-07-16T01:55:16;4.82;;;1.60;;
33501;SDS011;22396;51.070;4.974;2023-07-16T01:57:41;10.05;;;1.77;;
33501;SDS011;22396;51.070;4.974;2023-07-16T02:00:06;9.27;;;1.60;;
33501;SDS011;22396;51.070;4.974;2023-07-16T02:02:33;10.15;;;1.58;;
33501;SDS011;22396;51.070;4.974;2023-07-16T02:04:58;11.18;;;1.85;;
33501;SDS011;22396;51.070;4.974;2023-07-16T02:07:23;5.68;;;1.83;;
33501;SDS011;22396;51.070;4.974;2023-07-16T02:09:49;4.40;;;2.10;;
33501;SDS011;22396;51.070;4.974;2023-07-16T02:12:14;12.18;;;2.03;;
33501;SDS011;22396;51.070;4.974;2023-07-16T02:14:43;10.80;;;2.05;;
33501;SDS011;22396;51.070;4.974;2023-07-16T02:17:10;4.97;;;1.80;;
33501;SDS011;22396;51.070;4.974;2023-07-16T02:19:36;10.18;;;2.10;;
33501;SDS011;22396;51.070;4.974;2023-07-16T02:22:01;11.93;;;2.45;;
33501;SDS011;22396;51.070;4.974;2023-07-16T02:24:26;7.65;;;2.17;;
33501;SDS011;22396;51.070;4.974;2023-07-16T02:26:52;8.65;;;1.60;;
33501;SDS011;22396;51.070;4.974;2023-07-16T02:29:17;9.88;;;2.28;;
33501;SDS011;22396;51.070;4.974;2023-07-16T02:31:42;4.63;;;1.70;;
33501;SDS011;22396;51.070;4.974;2023-07-16T02:34:11;8.35;;;1.67;;
33501;SDS011;22396;51.070;4.974;2023-07-16T02:36:36;8.82;;;1.77;;
33501;SDS011;22396;51.070;4.974;2023-07-16T02:39:01;5.93;;;1.60;;
33501;SDS011;22396;51.070;4.974;2023-07-16T02:41:26;7.05;;;1.40;;
33501;SDS011;22396;51.070;4.974;2023-07-16T02:43:58;8.18;;;1.70;;
33501;SDS011;22396;51.070;4.974;2023-07-16T02:46:24;7.85;;;1.85;;
33501;SDS011;22396;51.070;4.974;2023-07-16T02:48:49;5.50;;;1.55;;
33501;SDS011;22396;51.070;4.974;2023-07-16T02:51:14;11.73;;;2.72;;
33501;SDS011;22396;51.070;4.974;2023-07-16T02:53:43;9.07;;;1.88;;
33501;SDS011;22396;51.070;4.974;2023-07-16T02:56:08;6.43;;;1.55;;
33501;SDS011;22396;51.070;4.974;2023-07-16T02:58:33;5.78;;;1.50;;
33501;SDS011;22396;51.070;4.974;2023-07-16T03:00:58;6.57;;;1.63;;
33501;SDS011;22396;51.070;4.974;2023-07-16T03:03:24;9.10;;;2.08;;
33501;SDS011;22396;51.070;4.974;2023-07-16T03:05:49;6.95;;;2.00;;
33501;SDS011;22396;51.070;4.974;2023-07-16T03:08:14;9.57;;;2.30;;
33501;SDS011;22396;51.070;4.974;2023-07-16T03:10:40;10.52;;;2.90;;
33501;SDS011;22396;51.070;4.974;2023-07-16T03:13:05;10.27;;;2.78;;
33501;SDS011;22396;51.070;4.974;2023-07-16T03:15:30;6.13;;;2.17;;
33501;SDS011;22396;51.070;4.974;2023-07-16T03:17:56;12.75;;;2.40;;
33501;SDS011;22396;51.070;4.974;2023-07-16T03:20:21;10.27;;;2.50;;
33501;SDS011;22396;51.070;4.974;2023-07-16T03:22:46;10.50;;;2.65;;
33501;SDS011;22396;51.070;4.974;2023-07-16T03:25:11;8.73;;;2.75;;
33501;SDS011;22396;51.070;4.974;2023-07-16T03:27:37;6.18;;;2.53;;
33501;SDS011;22396;51.070;4.974;2023-07-16T03:30:02;10.02;;;2.15;;
33501;SDS011;22396;51.070;4.974;2023-07-16T03:32:29;11.30;;;3.03;;
33501;SDS011;22396;51.070;4.974;2023-07-16T03:34:54;5.97;;;2.60;;
33501;SDS011;22396;51.070;4.974;2023-07-16T03:37:19;8.93;;;2.42;;
33501;SDS011;22396;51.070;4.974;2023-07-16T03:39:45;8.43;;;2.40;;
33501;SDS011;22396;51.070;4.974;2023-07-16T03:42:10;10.45;;;2.75;;
33501;SDS011;22396;51.070;4.974;2023-07-16T03:44:38;6.00;;;2.75;;
33501;SDS011;22396;51.070;4.974;2023-07-16T03:47:03;9.73;;;2.88;;
33501;SDS011;22396;51.070;4.974;2023-07-16T03:49:28;9.88;;;2.45;;
33501;SDS011;22396;51.070;4.974;2023-07-16T03:51:54;7.30;;;3.17;;
33501;SDS011;22396;51.070;4.974;2023-07-16T03:54:19;9.23;;;3.00;;
33501;SDS011;22396;51.070;4.974;2023-07-16T03:56:44;8.57;;;2.75;;
33501;SDS011;22396;51.070;4.974;2023-07-16T03:59:10;10.00;;;2.40;;
33501;SDS011;22396;51.070;4.974;2023-07-16T04:01:35;15.25;;;3.05;;
33501;SDS011;22396;51.070;4.974;2023-07-16T04:04:00;5.57;;;2.63;;
33501;SDS011;22396;51.070;4.974;2023-07-16T04:06:25;5.22;;;2.47;;
33501;SDS011;22396;51.070;4.974;2023-07-16T04:08:51;14.18;;;2.78;;
33501;SDS011;22396;51.070;4.974;2023-07-16T04:11:16;7.32;;;2.38;;
33501;SDS011;22396;51.070;4.974;2023-07-16T04:13:41;6.78;;;2.88;;
33501;SDS011;22396;51.070;4.974;2023-07-16T04:16:07;12.63;;;2.75;;
33501;SDS011;22396;51.070;4.974;2023-07-16T04:18:32;6.03;;;2.50;;
33501;SDS011;22396;51.070;4.974;2023-07-16T04:21:00;8.48;;;2.67;;
33501;SDS011;22396;51.070;4.974;2023-07-16T04:23:25;11.35;;;3.42;;
33501;SDS011;22396;51.070;4.974;2023-07-16T04:25:51;7.97;;;2.42;;
33501;SDS011;22396;51.070;4.974;2023-07-16T04:28:16;8.10;;;2.97;;
33501;SDS011;22396;51.070;4.974;2023-07-16T04:30:41;15.65;;;2.92;;
33501;SDS011;22396;51.070;4.974;2023-07-16T04:33:07;11.98;;;2.70;;
33501;SDS011;22396;51.070;4.974;2023-07-16T04:35:32;10.52;;;2.72;;
33501;SDS011;22396;51.070;4.974;2023-07-16T04:37:58;12.27;;;3.05;;
33501;SDS011;22396;51.070;4.974;2023-07-16T04:40:23;8.23;;;3.05;;
33501;SDS011;22396;51.070;4.974;2023-07-16T04:42:49;7.88;;;2.88;;
33501;SDS011;22396;51.070;4.974;2023-07-16T04:45:14;11.70;;;2.58;;
33501;SDS011;22396;51.070;4.974;2023-07-16T04:47:39;14.52;;;3.47;;
33501;SDS011;22396;51.070;4.974;2023-07-16T04:50:07;9.82;;;3.10;;
33501;SDS011;22396;51.070;4.974;2023-07-16T04:52:33;9.73;;;3.42;;
33501;SDS011;22396;51.070;4.974;2023-07-16T04:54:58;13.07;;;3.88;;
33501;SDS011;22396;51.070;4.974;2023-07-16T04:57:23;13.50;;;3.38;;
33501;SDS011;22396;51.070;4.974;2023-07-16T04:59:48;10.13;;;3.13;;
33501;SDS011;22396;51.070;4.974;2023-07-16T05:02:14;7.38;;;2.78;;
33501;SDS011;22396;51.070;4.974;2023-07-16T05:04:41;7.43;;;2.92;;
33501;SDS011;22396;51.070;4.974;2023-07-16T05:07:09;8.07;;;3.40;;
33501;SDS011;22396;51.070;4.974;2023-07-16T05:09:34;13.18;;;3.38;;
33501;SDS011;22396;51.070;4.974;2023-07-16T05:11:59;9.98;;;3.40;;
33501;SDS011;22396;51.070;4.974;2023-07-16T05:14:26;8.23;;;3.50;;
33501;SDS011;22396;51.070;4.974;2023-07-16T05:16:51;9.63;;;3.25;;
33501;SDS011;22396;51.070;4.974;2023-07-16T05:19:16;12.65;;;3.22;;
33501;SDS011;22396;51.070;4.974;2023-07-16T05:21:41;11.20;;;3.25;;
33501;SDS011;22396;51.070;4.974;2023-07-16T05:24:07;11.35;;;3.67;;
33501;SDS011;22396;51.070;4.974;2023-07-16T05:26:32;9.07;;;3.15;;
33501;SDS011;22396;51.070;4.974;2023-07-16T05:28:58;9.57;;;3.22;;
33501;SDS011;22396;51.070;4.974;2023-07-16T05:31:23;7.22;;;3.35;;
33501;SDS011;22396;51.070;4.974;2023-07-16T05:33:48;10.73;;;3.70;;
33501;SDS011;22396;51.070;4.974;2023-07-16T05:36:17;14.73;;;3.65;;
33501;SDS011;22396;51.070;4.974;2023-07-16T05:38:42;12.75;;;5.18;;
33501;SDS011;22396;51.070;4.974;2023-07-16T05:41:08;14.57;;;4.13;;
33501;SDS011;22396;51.070;4.974;2023-07-16T05:43:33;14.80;;;3.90;;
33501;SDS011;22396;51.070;4.974;2023-07-16T05:45:58;14.57;;;5.18;;
33501;SDS011;22396;51.070;4.974;2023-07-16T05:48:24;13.70;;;4.28;;
33501;SDS011;22396;51.070;4.974;2023-07-16T05:50:49;15.63;;;4.38;;
33501;SDS011;22396;51.070;4.974;2023-07-16T05:53:15;11.48;;;3.97;;
33501;SDS011;22396;51.070;4.974;2023-07-16T05:55:40;16.60;;;4.47;;
33501;SDS011;22396;51.070;4.974;2023-07-16T05:58:11;9.07;;;4.15;;
33501;SDS011;22396;51.070;4.974;2023-07-16T06:00:37;16.92;;;4.18;;
33501;SDS011;22396;51.070;4.974;2023-07-16T06:03:02;13.73;;;4.80;;
33501;SDS011;22396;51.070;4.974;2023-07-16T06:05:28;13.48;;;4.28;;
33501;SDS011;22396;51.070;4.974;2023-07-16T06:07:57;13.75;;;4.43;;
33501;SDS011;22396;51.070;4.974;2023-07-16T06:10:23;16.20;;;4.95;;
33501;SDS011;22396;51.070;4.974;2023-07-16T06:12:48;7.47;;;4.15;;
33501;SDS011;22396;51.070;4.974;2023-07-16T06:15:13;9.48;;;4.35;;
33501;SDS011;22396;51.070;4.974;2023-07-16T06:17:38;14.05;;;5.03;;
33501;SDS011;22396;51.070;4.974;2023-07-16T06:20:04;12.27;;;4.63;;
33501;SDS011;22396;51.070;4.974;2023-07-16T06:22:30;9.82;;;4.60;;
33501;SDS011;22396;51.070;4.974;2023-07-16T06:24:56;14.18;;;4.70;;
33501;SDS011;22396;51.070;4.974;2023-07-16T06:27:21;15.15;;;4.85;;
33501;SDS011;22396;51.070;4.974;2023-07-16T06:29:47;12.77;;;4.38;;
33501;SDS011;22396;51.070;4.974;2023-07-16T06:32:12;11.50;;;4.65;;
33501;SDS011;22396;51.070;4.974;2023-07-16T06:34:37;13.65;;;5.00;;
33501;SDS011;22396;51.070;4.974;2023-07-16T06:37:05;11.88;;;5.03;;
33501;SDS011;22396;51.070;4.974;2023-07-16T06:39:33;8.90;;;4.53;;
33501;SDS011;22396;51.070;4.974;2023-07-16T06:41:58;11.50;;;4.10;;
33501;SDS011;22396;51.070;4.974;2023-07-16T06:44:23;14.43;;;4.85;;
33501;SDS011;22396;51.070;4.974;2023-07-16T06:46:49;12.40;;;3.95;;
33501;SDS011;22396;51.070;4.974;2023-07-16T06:49:14;15.65;;;4.32;;
33501;SDS011;22396;51.070;4.974;2023-07-16T06:51:39;17.77;;;4.68;;
33501;SDS011;22396;51.070;4.974;2023-07-16T06:54:05;8.55;;;3.72;;
33501;SDS011;22396;51.070;4.974;2023-07-16T06:56:30;16.20;;;4.38;;
33501;SDS011;22396;51.070;4.974;2023-07-16T06:58:57;19.63;;;4.88;;
33501;SDS011;22396;51.070;4.974;2023-07-16T07:01:25;9.13;;;2.80;;
33501;SDS011;22396;51.070;4.974;2023-07-16T07:03:52;12.10;;;2.38;;
33501;SDS011;22396;51.070;4.974;2023-07-16T07:06:18;12.43;;;4.70;;
33501;SDS011;22396;51.070;4.974;2023-07-16T07:08:46;8.30;;;2.92;;
33501;SDS011;22396;51.070;4.974;2023-07-16T07:11:11;7.18;;;2.38;;
33501;SDS011;22396;51.070;4.974;2023-07-16T07:13:37;11.85;;;3.60;;
33501;SDS011;22396;51.070;4.974;2023-07-16T07:16:02;10.90;;;4.60;;
33501;SDS011;22396;51.070;4.974;2023-07-16T07:18:30;5.50;;;2.78;;
33501;SDS011;22396;51.070;4.974;2023-07-16T07:20:56;3.85;;;1.70;;
33501;SDS011;22396;51.070;4.974;2023-07-16T07:23:21;13.02;;;4.75;;
33501;SDS011;22396;51.070;4.974;2023-07-16T07:25:50;5.57;;;2.00;;
33501;SDS011;22396;51.070;4.974;2023-07-16T07:28:19;8.55;;;3.28;;
33501;SDS011;22396;51.070;4.974;2023-07-16T07:30:44;9.05;;;3.80;;
33501;SDS011;22396;51.070;4.974;2023-07-16T07:33:10;11.40;;;3.45;;
33501;SDS011;22396;51.070;4.974;2023-07-16T07:35:35;10.70;;;3.35;;
33501;SDS011;22396;51.070;4.974;2023-07-16T07:38:01;13.93;;;4.78;;
33501;SDS011;22396;51.070;4.974;2023-07-16T07:40:27;12.65;;;2.45;;
33501;SDS011;22396;51.070;4.974;2023-07-16T07:42:52;7.18;;;3.17;;
33501;SDS011;22396;51.070;4.974;2023-07-16T07:45:17;9.32;;;4.25;;
33501;SDS011;22396;51.070;4.974;2023-07-16T07:47:43;9.57;;;3.03;;
33501;SDS011;22396;51.070;4.974;2023-07-16T07:50:11;6.13;;;3.08;;
33501;SDS011;22396;51.070;4.974;2023-07-16T07:52:36;8.23;;;3.85;;
33501;SDS011;22396;51.070;4.974;2023-07-16T07:55:02;14.57;;;3.95;;
33501;SDS011;22396;51.070;4.974;2023-07-16T07:57:27;7.18;;;2.17;;
33501;SDS011;22396;51.070;4.974;2023-07-16T07:59:52;3.58;;;1.38;;
33501;SDS011;22396;51.070;4.974;2023-07-16T08:02:21;9.60;;;2.95;;
33501;SDS011;22396;51.070;4.974;2023-07-16T08:04:49;5.18;;;2.22;;
33501;SDS011;22396;51.070;4.974;2023-07-16T08:07:14;11.98;;;3.80;;
33501;SDS011;22396;51.070;4.974;2023-07-16T08:09:39;3.55;;;1.98;;
33501;SDS011;22396;51.070;4.974;2023-07-16T08:12:04;13.98;;;5.00;;
33501;SDS011;22396;51.070;4.974;2023-07-16T08:14:30;11.75;;;3.40;;
33501;SDS011;22396;51.070;4.974;2023-07-16T08:16:55;2.78;;;1.55;;
33501;SDS011;22396;51.070;4.974;2023-07-16T08:19:26;7.63;;;2.55;;
33501;SDS011;22396;51.070;4.974;2023-07-16T08:21:51;12.73;;;4.20;;
33501;SDS011;22396;51.070;4.974;2023-07-16T08:24:16;12.85;;;4.20;;
33501;SDS011;22396;51.070;4.974;2023-07-16T08:26:41;13.70;;;3.70;;
33501;SDS011;22396;51.070;4.974;2023-07-16T08:29:07;10.15;;;4.10;;
33501;SDS011;22396;51.070;4.974;2023-07-16T08:31:32;11.73;;;4.20;;
33501;SDS011;22396;51.070;4.974;2023-07-16T08:33:57;14.73;;;5.03;;
33501;SDS011;22396;51.070;4.974;2023-07-16T08:36:22;12.60;;;4.43;;
33501;SDS011;22396;51.070;4.974;2023-07-16T08:38:47;12.00;;;4.32;;
33501;SDS011;22396;51.070;4.974;2023-07-16T08:41:14;11.23;;;3.85;;
33501;SDS011;22396;51.070;4.974;2023-07-16T08:43:40;13.15;;;4.57;;
33501;SDS011;22396;51.070;4.974;2023-07-16T08:46:06;13.05;;;4.28;;
33501;SDS011;22396;51.070;4.974;2023-07-16T08:48:32;8.85;;;3.38;;
33501;SDS011;22396;51.070;4.974;2023-07-16T08:50:57;12.38;;;3.55;;
33501;SDS011;22396;51.070;4.974;2023-07-16T08:53:23;13.32;;;4.28;;
33501;SDS011;22396;51.070;4.974;2023-07-16T08:55:49;12.98;;;4.22;;
33501;SDS011;22396;51.070;4.974;2023-07-16T08:58:14;13.20;;;4.00;;
33501;SDS011;22396;51.070;4.974;2023-07-16T09:00:41;9.68;;;3.70;;
33501;SDS011;22396;51.070;4.974;2023-07-16T09:03:07;9.93;;;3.97;;
33501;SDS011;22396;51.070;4.974;2023-07-16T09:05:33;11.00;;;3.67;;
33501;SDS011;22396;51.070;4.974;2023-07-16T09:07:59;12.40;;;4.00;;
33501;SDS011;22396;51.070;4.974;2023-07-16T09:10:25;10.52;;;3.40;;
33501;SDS011;22396;51.070;4.974;2023-07-16T09:12:50;8.13;;;3.60;;
33501;SDS011;22396;51.070;4.974;2023-07-16T09:15:18;9.70;;;4.28;;
33501;SDS011;22396;51.070;4.974;2023-07-16T09:17:46;9.57;;;3.83;;
33501;SDS011;22396;51.070;4.974;2023-07-16T09:20:11;7.00;;;3.40;;
33501;SDS011;22396;51.070;4.974;2023-07-16T09:22:39;8.57;;;3.13;;
33501;SDS011;22396;51.070;4.974;2023-07-16T09:25:04;7.25;;;2.78;;
33501;SDS011;22396;51.070;4.974;2023-07-16T09:27:30;13.50;;;2.90;;
33501;SDS011;22396;51.070;4.974;2023-07-16T09:29:56;7.70;;;3.63;;
33501;SDS011;22396;51.070;4.974;2023-07-16T09:32:21;6.50;;;3.17;;
33501;SDS011;22396;51.070;4.974;2023-07-16T09:34:49;11.27;;;3.30;;
33501;SDS011;22396;51.070;4.974;2023-07-16T09:37:14;9.02;;;3.30;;
33501;SDS011;22396;51.070;4.974;2023-07-16T09:39:39;7.20;;;3.10;;
33501;SDS011;22396;51.070;4.974;2023-07-16T09:42:06;11.88;;;3.15;;
33501;SDS011;22396;51.070;4.974;2023-07-16T09:44:31;9.25;;;3.05;;
33501;SDS011;22396;51.070;4.974;2023-07-16T09:46:56;10.20;;;3.08;;
33501;SDS011;22396;51.070;4.974;2023-07-16T09:49:22;7.63;;;3.53;;
33501;SDS011;22396;51.070;4.974;2023-07-16T09:51:47;8.55;;;2.88;;
33501;SDS011;22396;51.070;4.974;2023-07-16T09:54:15;9.60;;;3.63;;
33501;SDS011;22396;51.070;4.974;2023-07-16T09:56:44;6.72;;;3.00;;
33501;SDS011;22396;51.070;4.974;2023-07-16T09:59:14;7.25;;;2.83;;
33501;SDS011;22396;51.070;4.974;2023-07-16T10:01:42;9.23;;;3.75;;
33501;SDS011;22396;51.070;4.974;2023-07-16T10:06:36;6.60;;;2.60;;
33501;SDS011;22396;51.070;4.974;2023-07-16T10:09:01;7.15;;;2.95;;
33501;SDS011;22396;51.070;4.974;2023-07-16T10:11:27;6.30;;;2.53;;
33501;SDS011;22396;51.070;4.974;2023-07-16T10:13:58;7.22;;;2.72;;
33501;SDS011;22396;51.070;4.974;2023-07-16T10:16:23;5.93;;;3.40;;
33501;SDS011;22396;51.070;4.974;2023-07-16T10:18:52;8.07;;;3.20;;
33501;SDS011;22396;51.070;4.974;2023-07-16T10:21:22;7.72;;;2.75;;
33501;SDS011;22396;51.070;4.974;2023-07-16T10:23:47;10.13;;;3.60;;
33501;SDS011;22396;51.070;4.974;2023-07-16T10:26:25;11.77;;;3.15;;
33501;SDS011;22396;51.070;4.974;2023-07-16T10:28:51;7.78;;;3.45;;
33501;SDS011;22396;51.070;4.974;2023-07-16T10:31:23;7.68;;;3.47;;
33501;SDS011;22396;51.070;4.974;2023-07-16T10:33:58;9.15;;;2.90;;
33501;SDS011;22396;51.070;4.974;2023-07-16T10:36:24;11.40;;;3.80;;
33501;SDS011;22396;51.070;4.974;2023-07-16T10:38:49;8.90;;;3.33;;
33501;SDS011;22396;51.070;4.974;2023-07-16T10:41:14;9.55;;;3.03;;
33501;SDS011;22396;51.070;4.974;2023-07-16T10:43:40;13.52;;;3.00;;
33501;SDS011;22396;51.070;4.974;2023-07-16T10:46:05;7.05;;;3.20;;
33501;SDS011;22396;51.070;4.974;2023-07-16T10:48:31;11.73;;;3.47;;
33501;SDS011;22396;51.070;4.974;2023-07-16T10:50:56;10.18;;;3.50;;
33501;SDS011;22396;51.070;4.974;2023-07-16T10:53:24;7.35;;;3.17;;
33501;SDS011;22396;51.070;4.974;2023-07-16T10:55:53;7.35;;;3.00;;
33501;SDS011;22396;51.070;4.974;2023-07-16T10:58:18;7.00;;;3.80;;
33501;SDS011;22396;51.070;4.974;2023-07-16T11:00:44;8.45;;;2.60;;
33501;SDS011;22396;51.070;4.974;2023-07-16T11:03:09;11.02;;;3.35;;
33501;SDS011;22396;51.070;4.974;2023-07-16T11:05:35;12.38;;;3.10;;
33501;SDS011;22396;51.070;4.974;2023-07-16T11:08:00;9.85;;;3.20;;
33501;SDS011;22396;51.070;4.974;2023-07-16T11:10:27;6.80;;;3.50;;
33501;SDS011;22396;51.070;4.974;2023-07-16T11:12:53;6.95;;;3.53;;
33501;SDS011;22396;51.070;4.974;2023-07-16T11:15:18;8.50;;;3.38;;
33501;SDS011;22396;51.070;4.974;2023-07-16T11:17:54;12.00;;;3.38;;
33501;SDS011;22396;51.070;4.974;2023-07-16T11:20:19;6.75;;;3.38;;
33501;SDS011;22396;51.070;4.974;2023-07-16T11:22:46;8.85;;;3.22;;
33501;SDS011;22396;51.070;4.974;2023-07-16T11:25:11;8.80;;;2.85;;
33501;SDS011;22396;51.070;4.974;2023-07-16T11:27:39;6.57;;;3.05;;
33501;SDS011;22396;51.070;4.974;2023-07-16T11:30:05;7.07;;;3.03;;
33501;SDS011;22396;51.070;4.974;2023-07-16T11:32:34;10.05;;;2.70;;
33501;SDS011;22396;51.070;4.974;2023-07-16T11:35:01;9.13;;;2.97;;
33501;SDS011;22396;51.070;4.974;2023-07-16T11:37:27;9.43;;;2.90;;
33501;SDS011;22396;51.070;4.974;2023-07-16T11:40:03;10.20;;;3.47;;
33501;SDS011;22396;51.070;4.974;2023-07-16T11:42:38;9.75;;;2.95;;
33501;SDS011;22396;51.070;4.974;2023-07-16T11:45:04;8.48;;;3.08;;
33501;SDS011;22396;51.070;4.974;2023-07-16T11:47:30;7.55;;;2.97;;
33501;SDS011;22396;51.070;4.974;2023-07-16T11:49:56;11.23;;;2.50;;
33501;SDS011;22396;51.070;4.974;2023-07-16T11:52:27;10.27;;;3.35;;
33501;SDS011;22396;51.070;4.974;2023-07-16T11:54:53;9.20;;;3.30;;
33501;SDS011;22396;51.070;4.974;2023-07-16T11:57:20;7.45;;;3.20;;
33501;SDS011;22396;51.070;4.974;2023-07-16T11:59:45;9.68;;;3.38;;
33501;SDS011;22396;51.070;4.974;2023-07-16T12:02:11;7.68;;;3.05;;
33501;SDS011;22396;51.070;4.974;2023-07-16T12:04:36;5.53;;;2.50;;
33501;SDS011;22396;51.070;4.974;2023-07-16T12:07:01;7.30;;;3.00;;
33501;SDS011;22396;51.070;4.974;2023-07-16T12:09:27;10.68;;;3.80;;
33501;SDS011;22396;51.070;4.974;2023-07-16T12:11:53;7.43;;;3.10;;
33501;SDS011;22396;51.070;4.974;2023-07-16T12:14:21;7.43;;;2.10;;
33501;SDS011;22396;51.070;4.974;2023-07-16T12:16:46;10.30;;;3.95;;
33501;SDS011;22396;51.070;4.974;2023-07-16T12:19:12;5.75;;;3.00;;
33501;SDS011;22396;51.070;4.974;2023-07-16T12:21:43;6.85;;;2.78;;
33501;SDS011;22396;51.070;4.974;2023-07-16T12:24:09;10.95;;;3.58;;
33501;SDS011;22396;51.070;4.974;2023-07-16T12:26:35;10.05;;;3.88;;
33501;SDS011;22396;51.070;4.974;2023-07-16T12:29:00;12.07;;;2.88;;
33501;SDS011;22396;51.070;4.974;2023-07-16T12:31:31;9.82;;;3.00;;
33501;SDS011;22396;51.070;4.974;2023-07-16T12:33:58;6.40;;;2.92;;
33501;SDS011;22396;51.070;4.974;2023-07-16T12:36:23;15.15;;;2.72;;
33501;SDS011;22396;51.070;4.974;2023-07-16T12:38:51;10.35;;;2.85;;
33501;SDS011;22396;51.070;4.974;2023-07-16T12:41:16;7.25;;;2.72;;
33501;SDS011;22396;51.070;4.974;2023-07-16T12:43:47;10.52;;;3.38;;
33501;SDS011;22396;51.070;4.974;2023-07-16T12:46:12;6.72;;;2.30;;
33501;SDS011;22396;51.070;4.974;2023-07-16T12:48:38;9.50;;;2.80;;
33501;SDS011;22396;51.070;4.974;2023-07-16T12:51:03;7.43;;;3.10;;
33501;SDS011;22396;51.070;4.974;2023-07-16T12:53:28;6.88;;;2.65;;
33501;SDS011;22396;51.070;4.974;2023-07-16T12:55:54;9.63;;;3.50;;
33501;SDS011;22396;51.070;4.974;2023-07-16T12:58:19;11.32;;;2.92;;
33501;SDS011;22396;51.070;4.974;2023-07-16T13:00:44;8.18;;;2.47;;
33501;SDS011;22396;51.070;4.974;2023-07-16T13:03:10;7.68;;;2.70;;
33501;SDS011;22396;51.070;4.974;2023-07-16T13:05:39;6.85;;;2.80;;
33501;SDS011;22396;51.070;4.974;2023-07-16T13:08:05;7.57;;;2.80;;
33501;SDS011;22396;51.070;4.974;2023-07-16T13:10:30;6.80;;;2.20;;
33501;SDS011;22396;51.070;4.974;2023-07-16T13:12:55;7.28;;;2.65;;
33501;SDS011;22396;51.070;4.974;2023-07-16T13:15:21;7.00;;;2.75;;
33501;SDS011;22396;51.070;4.974;2023-07-16T13:17:46;8.25;;;2.55;;
33501;SDS011;22396;51.070;4.974;2023-07-16T13:20:15;6.65;;;2.55;;
33501;SDS011;22396;51.070;4.974;2023-07-16T13:22:40;8.00;;;2.60;;
33501;SDS011;22396;51.070;4.974;2023-07-16T13:25:06;8.35;;;2.70;;
33501;SDS011;22396;51.070;4.974;2023-07-16T13:27:31;9.73;;;2.72;;
33501;SDS011;22396;51.070;4.974;2023-07-16T13:29:56;8.43;;;3.17;;
33501;SDS011;22396;51.070;4.974;2023-07-16T13:32:21;5.18;;;2.35;;
33501;SDS011;22396;51.070;4.974;2023-07-16T13:34:47;12.10;;;2.95;;
33501;SDS011;22396;51.070;4.974;2023-07-16T13:37:12;9.65;;;2.47;;
33501;SDS011;22396;51.070;4.974;2023-07-16T13:39:39;5.72;;;2.28;;
33501;SDS011;22396;51.070;4.974;2023-07-16T13:42:04;7.57;;;2.45;;
33501;SDS011;22396;51.070;4.974;2023-07-16T13:44:31;7.18;;;2.20;;
33501;SDS011;22396;51.070;4.974;2023-07-16T13:46:56;8.38;;;2.92;;
33501;SDS011;22396;51.070;4.974;2023-07-16T13:49:21;5.28;;;2.50;;
33501;SDS011;22396;51.070;4.974;2023-07-16T13:51:47;8.35;;;2.78;;
33501;SDS011;22396;51.070;4.974;2023-07-16T13:54:12;7.13;;;2.33;;
33501;SDS011;22396;51.070;4.974;2023-07-16T13:56:37;6.47;;;2.90;;
33501;SDS011;22396;51.070;4.974;2023-07-16T13:59:03;8.82;;;2.35;;
33501;SDS011;22396;51.070;4.974;2023-07-16T14:01:29;4.68;;;2.33;;
33501;SDS011;22396;51.070;4.974;2023-07-16T14:03:54;7.38;;;2.35;;
33501;SDS011;22396;51.070;4.974;2023-07-16T14:06:20;8.65;;;2.83;;
33501;SDS011;22396;51.070;4.974;2023-07-16T14:08:45;10.02;;;3.08;;
33501;SDS011;22396;51.070;4.974;2023-07-16T14:11:10;5.22;;;2.05;;
33501;SDS011;22396;51.070;4.974;2023-07-16T14:13:35;6.03;;;2.35;;
33501;SDS011;22396;51.070;4.974;2023-07-16T14:16:01;5.93;;;2.00;;
33501;SDS011;22396;51.070;4.974;2023-07-16T14:18:28;7.07;;;2.30;;
33501;SDS011;22396;51.070;4.974;2023-07-16T14:20:53;9.77;;;2.30;;
33501;SDS011;22396;51.070;4.974;2023-07-16T14:23:18;4.07;;;2.30;;
33501;SDS011;22396;51.070;4.974;2023-07-16T14:25:44;6.32;;;2.20;;
33501;SDS011;22396;51.070;4.974;2023-07-16T14:28:09;5.43;;;2.45;;
33501;SDS011;22396;51.070;4.974;2023-07-16T14:30:34;6.45;;;1.85;;
33501;SDS011;22396;51.070;4.974;2023-07-16T14:32:59;4.60;;;1.83;;
33501;SDS011;22396;51.070;4.974;2023-07-16T14:35:26;6.40;;;2.35;;
33501;SDS011;22396;51.070;4.974;2023-07-16T14:37:51;5.28;;;2.17;;
33501;SDS011;22396;51.070;4.974;2023-07-16T14:40:16;6.72;;;2.15;;